»·PEaware :: N9030C KMRY-KSMX

N9030C :: KMRY-KSMX

FLIGHT INFORMATION

Flight Status: Arrived
Operator: Privately registered:
United States
More flights under this callsign
Pilot: Craig B. (17555)
Aircraft: CESSNA 172 SKYHAWK
(C172)
More flights by this aircraft type
Origin: KMRY Monterey Peninsula
United States
Destination: KSMX Santa Maria Pub/Capt Hancock
United States
More flights between these airports :: More routes between these airports
Route: BSR V27 MQO
File this flight plan on PilotEdge
Remarks:
Altitude:
(Current/Filed)
7,500ft
Speed:
(Current/Filed)
115kts
Departed: 07-Jan-18 11:32 AM
Arrived: 07-Jan-18 12:49 PM
Distance/Time
Traveled:
122nm/1:17
Distance/Time
To Go:
Arrived

Flight Plot

Page will automatically refresh every two minutes.


Map Options




Map Legend


Flown Route
Filed Route
Departure Airport
Arrival Airport
Navaid (VOR, NDB)
Fix

Horizontal Profiles

Position Reports

Time Latitude Longitude Heading Altitude Ground
Speed
07-Jan-18 11:25 36.591870 -121.850263 167 165ft 0kts
07-Jan-18 11:26 36.591870 -121.850263 167 165ft 0kts
07-Jan-18 11:27 36.591870 -121.850263 167 165ft 0kts
07-Jan-18 11:28 36.591870 -121.850263 167 165ft 0kts
07-Jan-18 11:29 36.591870 -121.850263 167 165ft 0kts
07-Jan-18 11:30 36.591870 -121.850263 167 165ft 0kts
07-Jan-18 11:31 36.591870 -121.850263 167 165ft 0kts
07-Jan-18 11:32 36.591870 -121.850263 167 165ft 0kts
07-Jan-18 11:33 36.591870 -121.850263 167 165ft 0kts
07-Jan-18 11:34 36.591792 -121.850236 162 165ft 5kts
07-Jan-18 11:35 36.591526 -121.855278 268 165ft 14kts
07-Jan-18 11:36 36.591453 -121.855480 209 165ft 0kts
07-Jan-18 11:37 36.591442 -121.855488 208 165ft 2kts
07-Jan-18 11:38 36.584993 -121.838707 111 428ft 94kts
07-Jan-18 11:39 36.595709 -121.811822 2 962ft 114kts
07-Jan-18 11:40 36.615134 -121.839956 275 1477ft 119kts
07-Jan-18 11:41 36.597032 -121.869568 164 1925ft 112kts
07-Jan-18 11:42 36.570049 -121.859056 176 2709ft 99kts
07-Jan-18 11:43 36.545481 -121.849499 159 3505ft 88kts
07-Jan-18 11:44 36.522080 -121.838526 158 4125ft 97kts
07-Jan-18 11:45 36.496160 -121.825157 156 4627ft 103kts
07-Jan-18 11:46 36.470103 -121.809888 153 5127ft 103kts
07-Jan-18 11:47 36.443385 -121.794472 151 5626ft 109kts
07-Jan-18 11:48 36.416834 -121.780966 148 6123ft 94kts
07-Jan-18 11:49 36.394133 -121.766785 148 6506ft 93kts
07-Jan-18 11:50 36.370466 -121.751851 148 6802ft 96kts
07-Jan-18 11:51 36.346643 -121.736792 148 7094ft 96kts
07-Jan-18 11:52 36.322285 -121.721315 148 7387ft 99kts
07-Jan-18 11:53 36.297198 -121.705315 148 7499ft 105kts
07-Jan-18 11:54 36.271132 -121.688595 148 7466ft 106kts
07-Jan-18 11:55 36.244851 -121.673940 152 7462ft 102kts
07-Jan-18 11:56 36.218467 -121.660410 152 7462ft 102kts
07-Jan-18 11:57 36.191944 -121.647179 153 7462ft 102kts
07-Jan-18 11:58 36.165527 -121.633615 151 7462ft 103kts
07-Jan-18 11:59 36.138749 -121.619563 152 7462ft 105kts
07-Jan-18 12:00 36.111792 -121.605462 152 7462ft 105kts
07-Jan-18 12:01 36.084940 -121.591432 152 7462ft 105kts
07-Jan-18 12:02 36.057966 -121.577351 152 7462ft 105kts
07-Jan-18 12:03 36.031042 -121.563307 152 7462ft 105kts
07-Jan-18 12:04 36.004056 -121.549241 152 7462ft 105kts
07-Jan-18 12:05 35.977269 -121.535300 152 7461ft 104kts
07-Jan-18 12:06 35.950575 -121.521413 152 7461ft 104kts
07-Jan-18 12:07 35.924347 -121.507774 152 7461ft 104kts
07-Jan-18 12:08 35.897418 -121.493772 153 7436ft 107kts
07-Jan-18 12:09 35.870015 -121.479558 153 7436ft 107kts
07-Jan-18 12:10 35.842568 -121.465319 152 7436ft 107kts
07-Jan-18 12:11 35.814952 -121.450994 153 7436ft 107kts
07-Jan-18 12:12 35.787177 -121.436566 156 7437ft 110kts
07-Jan-18 12:13 35.758515 -121.421756 157 7437ft 112kts
07-Jan-18 12:14 35.729729 -121.406881 157 7437ft 112kts
07-Jan-18 12:15 35.701124 -121.392099 157 7455ft 111kts
07-Jan-18 12:16 35.672368 -121.377249 157 7455ft 112kts
07-Jan-18 12:17 35.643543 -121.362374 157 7455ft 112kts
07-Jan-18 12:18 35.620423 -121.337775 130 7455ft 114kts
07-Jan-18 12:19 35.600779 -121.307146 130 7455ft 114kts
07-Jan-18 12:20 35.581287 -121.276411 129 7455ft 114kts
07-Jan-18 12:21 35.561884 -121.245745 130 7455ft 112kts
07-Jan-18 12:22 35.542708 -121.215441 130 7455ft 112kts
07-Jan-18 12:23 35.523505 -121.185098 129 7455ft 112kts
07-Jan-18 12:24 35.504344 -121.154837 129 7455ft 113kts
07-Jan-18 12:25 35.484933 -121.124194 129 7455ft 114kts
07-Jan-18 12:26 35.465493 -121.093546 129 7455ft 114kts
07-Jan-18 12:27 35.446060 -121.062945 129 7455ft 113kts
07-Jan-18 12:28 35.427546 -121.033815 129 7455ft 113kts
07-Jan-18 12:29 35.408130 -121.003290 129 7455ft 113kts
07-Jan-18 12:30 35.389035 -120.973330 127 7455ft 116kts
07-Jan-18 12:31 35.369022 -120.941905 127 7455ft 117kts
07-Jan-18 12:32 35.348939 -120.910411 127 7455ft 117kts
07-Jan-18 12:33 35.328668 -120.878640 127 7455ft 117kts
07-Jan-18 12:34 35.308522 -120.847113 127 7455ft 117kts
07-Jan-18 12:35 35.288408 -120.815688 127 7455ft 117kts
07-Jan-18 12:36 35.268176 -120.784214 127 7455ft 117kts
07-Jan-18 12:37 35.246515 -120.754592 144 7317ft 118kts
07-Jan-18 12:38 35.219875 -120.731671 144 6815ft 116kts
07-Jan-18 12:39 35.193467 -120.708984 144 6316ft 116kts
07-Jan-18 12:40 35.167094 -120.686344 144 5815ft 116kts
07-Jan-18 12:41 35.140701 -120.663707 144 5303ft 117kts
07-Jan-18 12:42 35.114139 -120.640951 144 4702ft 116kts
07-Jan-18 12:43 35.087332 -120.617999 144 4102ft 119kts
07-Jan-18 12:44 35.060199 -120.594788 144 3503ft 120kts
07-Jan-18 12:45 35.033404 -120.571888 144 2900ft 111kts
07-Jan-18 12:46 35.007681 -120.554776 162 2317ft 101kts
07-Jan-18 12:47 34.981641 -120.543497 152 1917ft 99kts
07-Jan-18 12:48 34.959274 -120.524247 132 1520ft 98kts
07-Jan-18 12:49 34.941613 -120.493982 122 1491ft 118kts
07-Jan-18 12:50 34.924388 -120.467962 128 1491ft 118kts
07-Jan-18 12:51 34.907083 -120.444571 131 1301ft 74kts
07-Jan-18 12:52 34.893416 -120.426420 131 1011ft 78kts
07-Jan-18 12:53 34.877792 -120.417857 238 889ft 72kts
07-Jan-18 12:54 34.890243 -120.442749 314 355ft 76kts
07-Jan-18 12:55 34.898694 -120.451665 88 265ft 21kts
07-Jan-18 12:56 34.897193 -120.448556 140 265ft 30kts
07-Jan-18 12:57 34.897443 -120.446756 245 265ft 0kts

Navigation Log

Ident Type
1. KMRY Airport
2. BSR Navaid
3. WONGO Fix
4. BLANC Fix
5. CALIS Fix
6. FRAMS Fix
7. MQO Navaid
8. KSMX Airport